sensor_id;sensor_type;location;lat;lon;timestamp;P1;durP1;ratioP1;P2;durP2;ratioP2
27778;SDS011;30234;48.090;11.464;2023-04-03T00:00:48;11.00;;;8.15;;
27778;SDS011;30234;48.090;11.464;2023-04-03T00:04:49;12.02;;;8.60;;
27778;SDS011;30234;48.090;11.464;2023-04-03T00:08:50;12.68;;;8.32;;
27778;SDS011;30234;48.090;11.464;2023-04-03T00:12:52;14.27;;;7.95;;
27778;SDS011;30234;48.090;11.464;2023-04-03T00:16:53;10.88;;;7.95;;
27778;SDS011;30234;48.090;11.464;2023-04-03T00:20:54;10.75;;;7.90;;
27778;SDS011;30234;48.090;11.464;2023-04-03T00:24:55;11.88;;;8.25;;
27778;SDS011;30234;48.090;11.464;2023-04-03T00:28:56;11.60;;;8.05;;
27778;SDS011;30234;48.090;11.464;2023-04-03T00:32:57;13.13;;;7.90;;
27778;SDS011;30234;48.090;11.464;2023-04-03T00:36:58;11.50;;;7.32;;
27778;SDS011;30234;48.090;11.464;2023-04-03T00:40:58;9.65;;;7.65;;
27778;SDS011;30234;48.090;11.464;2023-04-03T00:49:00;10.85;;;8.18;;
27778;SDS011;30234;48.090;11.464;2023-04-03T00:53:01;10.25;;;6.47;;
27778;SDS011;30234;48.090;11.464;2023-04-03T00:57:05;9.88;;;7.95;;
27778;SDS011;30234;48.090;11.464;2023-04-03T01:01:08;11.05;;;8.07;;
27778;SDS011;30234;48.090;11.464;2023-04-03T01:05:13;10.40;;;6.75;;
27778;SDS011;30234;48.090;11.464;2023-04-03T01:09:17;10.05;;;7.50;;
27778;SDS011;30234;48.090;11.464;2023-04-03T01:13:23;9.60;;;7.03;;
27778;SDS011;30234;48.090;11.464;2023-04-03T01:17:34;9.75;;;6.97;;
27778;SDS011;30234;48.090;11.464;2023-04-03T01:26:03;13.63;;;7.32;;
27778;SDS011;30234;48.090;11.464;2023-04-03T01:30:04;12.55;;;7.15;;
27778;SDS011;30234;48.090;11.464;2023-04-03T01:34:06;8.48;;;6.93;;
27778;SDS011;30234;48.090;11.464;2023-04-03T01:38:06;10.65;;;6.90;;
27778;SDS011;30234;48.090;11.464;2023-04-03T01:42:07;10.70;;;6.95;;
27778;SDS011;30234;48.090;11.464;2023-04-03T01:46:08;9.55;;;7.07;;
27778;SDS011;30234;48.090;11.464;2023-04-03T01:50:09;8.18;;;6.28;;
27778;SDS011;30234;48.090;11.464;2023-04-03T01:54:10;12.57;;;7.45;;
27778;SDS011;30234;48.090;11.464;2023-04-03T02:02:15;9.68;;;7.40;;
27778;SDS011;30234;48.090;11.464;2023-04-03T02:06:17;12.35;;;7.88;;
27778;SDS011;30234;48.090;11.464;2023-04-03T02:10:17;8.30;;;6.88;;
27778;SDS011;30234;48.090;11.464;2023-04-03T02:14:18;11.48;;;7.38;;
27778;SDS011;30234;48.090;11.464;2023-04-03T02:18:20;12.93;;;7.53;;
27778;SDS011;30234;48.090;11.464;2023-04-03T02:22:21;10.57;;;6.80;;
27778;SDS011;30234;48.090;11.464;2023-04-03T02:26:22;13.73;;;8.38;;
27778;SDS011;30234;48.090;11.464;2023-04-03T02:30:22;12.07;;;7.70;;
27778;SDS011;30234;48.090;11.464;2023-04-03T02:34:23;13.52;;;7.82;;
27778;SDS011;30234;48.090;11.464;2023-04-03T02:38:25;9.90;;;7.32;;
27778;SDS011;30234;48.090;11.464;2023-04-03T02:42:26;10.70;;;7.60;;
27778;SDS011;30234;48.090;11.464;2023-04-03T02:46:27;10.48;;;7.22;;
27778;SDS011;30234;48.090;11.464;2023-04-03T02:50:27;9.38;;;7.50;;
27778;SDS011;30234;48.090;11.464;2023-04-03T02:54:28;9.10;;;7.07;;
27778;SDS011;30234;48.090;11.464;2023-04-03T02:58:30;10.50;;;7.05;;
27778;SDS011;30234;48.090;11.464;2023-04-03T03:02:31;9.73;;;7.15;;
27778;SDS011;30234;48.090;11.464;2023-04-03T03:06:32;8.65;;;6.65;;
27778;SDS011;30234;48.090;11.464;2023-04-03T03:10:33;9.13;;;6.70;;
27778;SDS011;30234;48.090;11.464;2023-04-03T03:14:34;10.70;;;6.55;;
27778;SDS011;30234;48.090;11.464;2023-04-03T03:18:35;11.45;;;7.03;;
27778;SDS011;30234;48.090;11.464;2023-04-03T03:22:36;8.55;;;6.70;;
27778;SDS011;30234;48.090;11.464;2023-04-03T03:26:37;12.10;;;6.85;;
27778;SDS011;30234;48.090;11.464;2023-04-03T03:30:38;11.38;;;6.40;;
27778;SDS011;30234;48.090;11.464;2023-04-03T03:34:39;8.15;;;6.00;;
27778;SDS011;30234;48.090;11.464;2023-04-03T03:38:40;7.63;;;5.57;;
27778;SDS011;30234;48.090;11.464;2023-04-03T03:42:41;8.35;;;6.20;;
27778;SDS011;30234;48.090;11.464;2023-04-03T03:46:42;6.53;;;5.82;;
27778;SDS011;30234;48.090;11.464;2023-04-03T03:50:43;8.00;;;5.80;;
27778;SDS011;30234;48.090;11.464;2023-04-03T03:54:44;7.35;;;5.68;;
27778;SDS011;30234;48.090;11.464;2023-04-03T03:58:45;7.82;;;5.93;;
27778;SDS011;30234;48.090;11.464;2023-04-03T04:02:46;8.75;;;5.57;;
27778;SDS011;30234;48.090;11.464;2023-04-03T04:06:46;5.90;;;4.90;;
27778;SDS011;30234;48.090;11.464;2023-04-03T04:10:47;10.68;;;5.63;;
27778;SDS011;30234;48.090;11.464;2023-04-03T04:14:48;6.15;;;5.22;;
27778;SDS011;30234;48.090;11.464;2023-04-03T04:18:49;6.95;;;4.63;;
27778;SDS011;30234;48.090;11.464;2023-04-03T04:22:50;4.57;;;4.00;;
27778;SDS011;30234;48.090;11.464;2023-04-03T04:26:51;7.75;;;4.55;;
27778;SDS011;30234;48.090;11.464;2023-04-03T04:30:51;6.18;;;4.22;;
27778;SDS011;30234;48.090;11.464;2023-04-03T04:34:52;5.53;;;4.07;;
27778;SDS011;30234;48.090;11.464;2023-04-03T04:38:53;6.38;;;3.92;;
27778;SDS011;30234;48.090;11.464;2023-04-03T04:42:54;7.57;;;4.57;;
27778;SDS011;30234;48.090;11.464;2023-04-03T04:46:55;4.78;;;4.13;;
27778;SDS011;30234;48.090;11.464;2023-04-03T04:50:56;5.47;;;3.78;;
27778;SDS011;30234;48.090;11.464;2023-04-03T04:54:57;6.43;;;4.13;;
27778;SDS011;30234;48.090;11.464;2023-04-03T04:58:58;4.85;;;3.95;;
27778;SDS011;30234;48.090;11.464;2023-04-03T05:02:58;7.22;;;4.97;;
27778;SDS011;30234;48.090;11.464;2023-04-03T05:06:59;6.32;;;4.50;;
27778;SDS011;30234;48.090;11.464;2023-04-03T05:11:00;5.70;;;4.40;;
27778;SDS011;30234;48.090;11.464;2023-04-03T05:15:01;5.25;;;3.97;;
27778;SDS011;30234;48.090;11.464;2023-04-03T05:19:02;5.95;;;4.15;;
27778;SDS011;30234;48.090;11.464;2023-04-03T05:23:04;4.47;;;3.55;;
27778;SDS011;30234;48.090;11.464;2023-04-03T05:27:05;5.65;;;4.43;;
27778;SDS011;30234;48.090;11.464;2023-04-03T05:31:06;8.50;;;4.43;;
27778;SDS011;30234;48.090;11.464;2023-04-03T05:35:07;5.88;;;4.70;;
27778;SDS011;30234;48.090;11.464;2023-04-03T05:39:08;4.43;;;3.67;;
27778;SDS011;30234;48.090;11.464;2023-04-03T05:43:09;4.88;;;4.10;;
27778;SDS011;30234;48.090;11.464;2023-04-03T05:47:10;5.90;;;4.10;;
27778;SDS011;30234;48.090;11.464;2023-04-03T05:51:18;6.13;;;4.45;;
27778;SDS011;30234;48.090;11.464;2023-04-03T05:55:23;6.40;;;4.38;;
27778;SDS011;30234;48.090;11.464;2023-04-03T05:59:24;3.60;;;3.20;;
27778;SDS011;30234;48.090;11.464;2023-04-03T06:03:25;5.30;;;3.60;;
27778;SDS011;30234;48.090;11.464;2023-04-03T06:07:26;4.20;;;3.53;;
27778;SDS011;30234;48.090;11.464;2023-04-03T06:11:28;5.53;;;3.22;;
27778;SDS011;30234;48.090;11.464;2023-04-03T06:15:29;4.47;;;3.17;;
27778;SDS011;30234;48.090;11.464;2023-04-03T06:19:30;5.22;;;3.20;;
27778;SDS011;30234;48.090;11.464;2023-04-03T06:23:31;4.15;;;3.42;;
27778;SDS011;30234;48.090;11.464;2023-04-03T06:27:32;5.70;;;3.58;;
27778;SDS011;30234;48.090;11.464;2023-04-03T06:31:33;5.25;;;3.72;;
27778;SDS011;30234;48.090;11.464;2023-04-03T06:35:36;5.50;;;3.53;;
27778;SDS011;30234;48.090;11.464;2023-04-03T06:39:38;5.00;;;3.13;;
27778;SDS011;30234;48.090;11.464;2023-04-03T06:43:39;4.15;;;3.40;;
27778;SDS011;30234;48.090;11.464;2023-04-03T06:47:40;4.47;;;2.85;;
27778;SDS011;30234;48.090;11.464;2023-04-03T06:51:41;4.97;;;3.03;;
27778;SDS011;30234;48.090;11.464;2023-04-03T06:55:42;4.10;;;3.28;;
27778;SDS011;30234;48.090;11.464;2023-04-03T06:59:43;3.53;;;3.10;;
27778;SDS011;30234;48.090;11.464;2023-04-03T07:03:44;5.25;;;3.10;;
27778;SDS011;30234;48.090;11.464;2023-04-03T07:07:46;4.22;;;3.50;;
27778;SDS011;30234;48.090;11.464;2023-04-03T07:11:47;5.10;;;3.13;;
27778;SDS011;30234;48.090;11.464;2023-04-03T07:15:48;3.15;;;2.78;;
27778;SDS011;30234;48.090;11.464;2023-04-03T07:19:49;3.67;;;3.00;;
27778;SDS011;30234;48.090;11.464;2023-04-03T07:23:50;4.38;;;3.33;;
27778;SDS011;30234;48.090;11.464;2023-04-03T07:27:50;5.10;;;3.22;;
27778;SDS011;30234;48.090;11.464;2023-04-03T07:31:51;5.70;;;3.33;;
27778;SDS011;30234;48.090;11.464;2023-04-03T07:35:53;3.17;;;2.72;;
27778;SDS011;30234;48.090;11.464;2023-04-03T07:39:53;3.53;;;2.45;;
27778;SDS011;30234;48.090;11.464;2023-04-03T07:43:55;4.65;;;3.47;;
27778;SDS011;30234;48.090;11.464;2023-04-03T07:47:56;7.10;;;3.78;;
27778;SDS011;30234;48.090;11.464;2023-04-03T07:51:57;5.38;;;3.40;;
27778;SDS011;30234;48.090;11.464;2023-04-03T07:55:58;4.07;;;3.08;;
27778;SDS011;30234;48.090;11.464;2023-04-03T08:00:02;5.38;;;2.97;;
27778;SDS011;30234;48.090;11.464;2023-04-03T08:04:05;7.38;;;3.40;;
27778;SDS011;30234;48.090;11.464;2023-04-03T08:08:07;4.65;;;3.25;;
27778;SDS011;30234;48.090;11.464;2023-04-03T08:12:09;3.20;;;2.90;;
27778;SDS011;30234;48.090;11.464;2023-04-03T08:16:12;4.65;;;3.78;;
27778;SDS011;30234;48.090;11.464;2023-04-03T08:20:17;5.97;;;3.55;;
27778;SDS011;30234;48.090;11.464;2023-04-03T08:24:18;7.60;;;3.97;;
27778;SDS011;30234;48.090;11.464;2023-04-03T08:28:18;6.15;;;3.38;;
27778;SDS011;30234;48.090;11.464;2023-04-03T08:32:19;5.25;;;3.85;;
27778;SDS011;30234;48.090;11.464;2023-04-03T08:36:24;5.95;;;3.83;;
27778;SDS011;30234;48.090;11.464;2023-04-03T08:40:27;5.43;;;3.60;;
27778;SDS011;30234;48.090;11.464;2023-04-03T08:49:00;5.95;;;3.92;;
27778;SDS011;30234;48.090;11.464;2023-04-03T08:53:01;6.45;;;4.10;;
27778;SDS011;30234;48.090;11.464;2023-04-03T08:57:06;13.23;;;4.32;;
27778;SDS011;30234;48.090;11.464;2023-04-03T09:05:29;7.80;;;3.75;;
27778;SDS011;30234;48.090;11.464;2023-04-03T09:09:43;8.45;;;4.22;;
27778;SDS011;30234;48.090;11.464;2023-04-03T09:22:21;7.68;;;4.85;;
27778;SDS011;30234;48.090;11.464;2023-04-03T09:26:33;10.20;;;6.90;;
27778;SDS011;30234;48.090;11.464;2023-04-03T09:30:49;5.82;;;3.97;;
27778;SDS011;30234;48.090;11.464;2023-04-03T09:34:50;5.07;;;3.85;;
27778;SDS011;30234;48.090;11.464;2023-04-03T09:39:14;5.10;;;3.05;;
27778;SDS011;30234;48.090;11.464;2023-04-03T09:43:33;4.88;;;2.88;;
27778;SDS011;30234;48.090;11.464;2023-04-03T09:47:38;6.75;;;3.38;;
27778;SDS011;30234;48.090;11.464;2023-04-03T09:51:39;6.32;;;3.78;;
27778;SDS011;30234;48.090;11.464;2023-04-03T09:55:42;3.90;;;3.30;;
27778;SDS011;30234;48.090;11.464;2023-04-03T09:59:46;4.68;;;2.72;;
27778;SDS011;30234;48.090;11.464;2023-04-03T10:12:20;7.93;;;3.72;;
27778;SDS011;30234;48.090;11.464;2023-04-03T10:16:26;4.57;;;3.47;;
27778;SDS011;30234;48.090;11.464;2023-04-03T10:20:39;4.50;;;3.05;;
27778;SDS011;30234;48.090;11.464;2023-04-03T10:24:51;4.88;;;3.42;;
27778;SDS011;30234;48.090;11.464;2023-04-03T10:29:17;4.75;;;3.78;;
27778;SDS011;30234;48.090;11.464;2023-04-03T10:38:05;4.00;;;2.65;;
27778;SDS011;30234;48.090;11.464;2023-04-03T10:42:29;7.30;;;3.70;;
27778;SDS011;30234;48.090;11.464;2023-04-03T10:46:53;7.43;;;5.10;;
27778;SDS011;30234;48.090;11.464;2023-04-03T10:59:53;6.13;;;3.38;;
27778;SDS011;30234;48.090;11.464;2023-04-03T11:04:01;6.13;;;3.30;;
27778;SDS011;30234;48.090;11.464;2023-04-03T11:08:10;6.45;;;2.97;;
27778;SDS011;30234;48.090;11.464;2023-04-03T11:12:44;4.22;;;2.85;;
27778;SDS011;30234;48.090;11.464;2023-04-03T11:17:15;7.32;;;2.88;;
27778;SDS011;30234;48.090;11.464;2023-04-03T11:21:20;4.45;;;3.28;;
27778;SDS011;30234;48.090;11.464;2023-04-03T11:29:36;9.65;;;3.25;;
27778;SDS011;30234;48.090;11.464;2023-04-03T11:34:00;4.05;;;2.63;;
27778;SDS011;30234;48.090;11.464;2023-04-03T11:38:34;5.75;;;3.00;;
27778;SDS011;30234;48.090;11.464;2023-04-03T11:42:41;5.72;;;2.60;;
27778;SDS011;30234;48.090;11.464;2023-04-03T11:46:57;5.03;;;2.45;;
27778;SDS011;30234;48.090;11.464;2023-04-03T11:51:37;5.28;;;2.70;;
27778;SDS011;30234;48.090;11.464;2023-04-03T11:59:37;3.75;;;1.92;;
27778;SDS011;30234;48.090;11.464;2023-04-03T12:07:42;2.50;;;1.83;;
27778;SDS011;30234;48.090;11.464;2023-04-03T12:11:43;4.45;;;1.88;;
27778;SDS011;30234;48.090;11.464;2023-04-03T12:15:47;3.30;;;1.88;;
27778;SDS011;30234;48.090;11.464;2023-04-03T12:19:51;5.85;;;2.47;;
27778;SDS011;30234;48.090;11.464;2023-04-03T12:28:09;4.10;;;2.40;;
27778;SDS011;30234;48.090;11.464;2023-04-03T12:32:21;2.83;;;1.92;;
27778;SDS011;30234;48.090;11.464;2023-04-03T12:36:54;4.13;;;1.95;;
27778;SDS011;30234;48.090;11.464;2023-04-03T12:45:23;3.00;;;1.60;;
27778;SDS011;30234;48.090;11.464;2023-04-03T12:49:30;5.80;;;1.90;;
27778;SDS011;30234;48.090;11.464;2023-04-03T12:53:38;2.30;;;1.67;;
27778;SDS011;30234;48.090;11.464;2023-04-03T12:57:39;2.35;;;1.73;;
27778;SDS011;30234;48.090;11.464;2023-04-03T13:01:40;2.08;;;1.60;;
27778;SDS011;30234;48.090;11.464;2023-04-03T13:05:43;2.70;;;1.70;;
27778;SDS011;30234;48.090;11.464;2023-04-03T13:09:44;3.40;;;1.98;;
27778;SDS011;30234;48.090;11.464;2023-04-03T13:13:58;3.65;;;2.05;;
27778;SDS011;30234;48.090;11.464;2023-04-03T13:18:03;2.55;;;1.85;;
27778;SDS011;30234;48.090;11.464;2023-04-03T13:22:10;6.18;;;1.92;;
27778;SDS011;30234;48.090;11.464;2023-04-03T13:30:33;4.18;;;1.67;;
27778;SDS011;30234;48.090;11.464;2023-04-03T13:34:38;4.07;;;1.73;;
27778;SDS011;30234;48.090;11.464;2023-04-03T13:38:42;5.65;;;1.58;;
27778;SDS011;30234;48.090;11.464;2023-04-03T13:42:43;4.30;;;2.00;;
27778;SDS011;30234;48.090;11.464;2023-04-03T13:46:44;3.00;;;1.95;;
27778;SDS011;30234;48.090;11.464;2023-04-03T13:50:59;5.28;;;1.67;;
27778;SDS011;30234;48.090;11.464;2023-04-03T13:55:24;2.22;;;1.63;;
27778;SDS011;30234;48.090;11.464;2023-04-03T13:59:29;2.13;;;1.30;;
27778;SDS011;30234;48.090;11.464;2023-04-03T14:03:45;2.38;;;1.48;;
27778;SDS011;30234;48.090;11.464;2023-04-03T14:07:52;2.80;;;1.60;;
27778;SDS011;30234;48.090;11.464;2023-04-03T14:11:55;3.25;;;1.70;;
27778;SDS011;30234;48.090;11.464;2023-04-03T14:16:05;2.95;;;1.70;;
27778;SDS011;30234;48.090;11.464;2023-04-03T14:20:06;3.15;;;1.40;;
27778;SDS011;30234;48.090;11.464;2023-04-03T14:24:15;2.63;;;1.40;;
27778;SDS011;30234;48.090;11.464;2023-04-03T14:28:21;6.57;;;1.88;;
27778;SDS011;30234;48.090;11.464;2023-04-03T14:32:23;1.67;;;1.30;;
27778;SDS011;30234;48.090;11.464;2023-04-03T14:36:25;3.67;;;1.70;;
27778;SDS011;30234;48.090;11.464;2023-04-03T14:40:28;5.28;;;1.48;;
27778;SDS011;30234;48.090;11.464;2023-04-03T14:44:29;3.83;;;1.33;;
27778;SDS011;30234;48.090;11.464;2023-04-03T14:48:30;4.85;;;1.80;;
27778;SDS011;30234;48.090;11.464;2023-04-03T14:52:33;6.05;;;1.65;;
27778;SDS011;30234;48.090;11.464;2023-04-03T14:56:35;6.35;;;1.40;;
27778;SDS011;30234;48.090;11.464;2023-04-03T15:00:36;3.65;;;1.48;;
27778;SDS011;30234;48.090;11.464;2023-04-03T15:04:37;10.55;;;4.10;;
27778;SDS011;30234;48.090;11.464;2023-04-03T15:08:38;5.93;;;2.88;;
27778;SDS011;30234;48.090;11.464;2023-04-03T15:12:42;2.30;;;2.00;;
27778;SDS011;30234;48.090;11.464;2023-04-03T15:16:43;2.60;;;1.90;;
27778;SDS011;30234;48.090;11.464;2023-04-03T15:20:44;4.38;;;1.60;;
27778;SDS011;30234;48.090;11.464;2023-04-03T15:24:46;2.42;;;1.75;;
27778;SDS011;30234;48.090;11.464;2023-04-03T15:28:47;3.05;;;0.82;;
27778;SDS011;30234;48.090;11.464;2023-04-03T15:32:48;3.40;;;1.30;;
27778;SDS011;30234;48.090;11.464;2023-04-03T15:36:50;2.03;;;1.10;;
27778;SDS011;30234;48.090;11.464;2023-04-03T15:40:54;1.63;;;1.05;;
27778;SDS011;30234;48.090;11.464;2023-04-03T15:44:55;2.88;;;1.52;;
27778;SDS011;30234;48.090;11.464;2023-04-03T15:48:56;4.28;;;1.17;;
27778;SDS011;30234;48.090;11.464;2023-04-03T15:52:58;2.88;;;1.45;;
27778;SDS011;30234;48.090;11.464;2023-04-03T15:57:01;1.58;;;1.20;;
27778;SDS011;30234;48.090;11.464;2023-04-03T16:01:02;5.03;;;1.52;;
27778;SDS011;30234;48.090;11.464;2023-04-03T16:05:03;9.73;;;1.33;;
27778;SDS011;30234;48.090;11.464;2023-04-03T16:09:05;1.67;;;1.10;;
27778;SDS011;30234;48.090;11.464;2023-04-03T16:13:07;1.25;;;0.85;;
27778;SDS011;30234;48.090;11.464;2023-04-03T16:17:08;2.60;;;1.35;;
27778;SDS011;30234;48.090;11.464;2023-04-03T16:21:09;1.63;;;1.00;;
27778;SDS011;30234;48.090;11.464;2023-04-03T16:25:10;3.97;;;1.20;;
27778;SDS011;30234;48.090;11.464;2023-04-03T16:29:11;1.63;;;0.82;;
27778;SDS011;30234;48.090;11.464;2023-04-03T16:33:12;1.95;;;1.13;;
27778;SDS011;30234;48.090;11.464;2023-04-03T16:37:14;1.75;;;1.27;;
27778;SDS011;30234;48.090;11.464;2023-04-03T16:41:16;2.97;;;1.17;;
27778;SDS011;30234;48.090;11.464;2023-04-03T16:45:17;2.58;;;1.15;;
27778;SDS011;30234;48.090;11.464;2023-04-03T16:49:18;2.72;;;1.35;;
27778;SDS011;30234;48.090;11.464;2023-04-03T16:53:23;3.15;;;1.38;;
27778;SDS011;30234;48.090;11.464;2023-04-03T16:57:25;3.53;;;1.30;;
27778;SDS011;30234;48.090;11.464;2023-04-03T17:01:26;4.53;;;1.48;;
27778;SDS011;30234;48.090;11.464;2023-04-03T17:05:28;2.58;;;1.48;;
27778;SDS011;30234;48.090;11.464;2023-04-03T17:09:30;5.10;;;2.15;;
27778;SDS011;30234;48.090;11.464;2023-04-03T17:13:31;2.80;;;1.35;;
27778;SDS011;30234;48.090;11.464;2023-04-03T17:17:33;3.63;;;1.40;;
27778;SDS011;30234;48.090;11.464;2023-04-03T17:21:34;2.83;;;1.25;;
27778;SDS011;30234;48.090;11.464;2023-04-03T17:25:36;3.08;;;1.58;;
27778;SDS011;30234;48.090;11.464;2023-04-03T17:29:37;1.70;;;1.33;;
27778;SDS011;30234;48.090;11.464;2023-04-03T17:33:37;1.52;;;1.20;;
27778;SDS011;30234;48.090;11.464;2023-04-03T17:37:38;2.03;;;1.48;;
27778;SDS011;30234;48.090;11.464;2023-04-03T17:41:39;1.40;;;1.05;;
27778;SDS011;30234;48.090;11.464;2023-04-03T17:45:40;3.08;;;1.48;;
27778;SDS011;30234;48.090;11.464;2023-04-03T17:49:41;1.67;;;1.30;;
27778;SDS011;30234;48.090;11.464;2023-04-03T17:53:43;2.75;;;1.70;;
27778;SDS011;30234;48.090;11.464;2023-04-03T17:57:44;2.60;;;1.40;;
27778;SDS011;30234;48.090;11.464;2023-04-03T18:01:45;3.80;;;1.48;;
27778;SDS011;30234;48.090;11.464;2023-04-03T18:05:46;3.75;;;1.30;;
27778;SDS011;30234;48.090;11.464;2023-04-03T18:09:49;2.28;;;1.45;;
27778;SDS011;30234;48.090;11.464;2023-04-03T18:13:52;4.90;;;1.40;;
27778;SDS011;30234;48.090;11.464;2023-04-03T18:17:56;3.05;;;1.30;;
27778;SDS011;30234;48.090;11.464;2023-04-03T18:21:59;2.17;;;1.48;;
27778;SDS011;30234;48.090;11.464;2023-04-03T18:26:04;4.78;;;1.58;;
27778;SDS011;30234;48.090;11.464;2023-04-03T18:30:09;2.88;;;1.42;;
27778;SDS011;30234;48.090;11.464;2023-04-03T18:34:14;5.22;;;1.75;;
27778;SDS011;30234;48.090;11.464;2023-04-03T18:38:15;2.33;;;1.63;;
27778;SDS011;30234;48.090;11.464;2023-04-03T18:42:17;3.88;;;1.63;;
27778;SDS011;30234;48.090;11.464;2023-04-03T18:46:21;3.40;;;1.10;;
27778;SDS011;30234;48.090;11.464;2023-04-03T18:50:22;4.55;;;1.50;;
27778;SDS011;30234;48.090;11.464;2023-04-03T18:54:23;2.78;;;1.73;;
27778;SDS011;30234;48.090;11.464;2023-04-03T18:58:24;2.75;;;1.55;;
27778;SDS011;30234;48.090;11.464;2023-04-03T19:02:26;1.60;;;1.50;;
27778;SDS011;30234;48.090;11.464;2023-04-03T19:06:28;2.25;;;1.50;;
27778;SDS011;30234;48.090;11.464;2023-04-03T19:10:29;3.42;;;1.48;;
27778;SDS011;30234;48.090;11.464;2023-04-03T19:14:30;3.13;;;1.48;;
27778;SDS011;30234;48.090;11.464;2023-04-03T19:18:31;2.85;;;1.45;;
27778;SDS011;30234;48.090;11.464;2023-04-03T19:22:32;2.15;;;1.58;;
27778;SDS011;30234;48.090;11.464;2023-04-03T19:26:33;2.47;;;1.60;;
27778;SDS011;30234;48.090;11.464;2023-04-03T19:30:35;4.95;;;1.77;;
27778;SDS011;30234;48.090;11.464;2023-04-03T19:34:37;2.65;;;1.60;;
27778;SDS011;30234;48.090;11.464;2023-04-03T19:38:38;2.33;;;1.33;;
27778;SDS011;30234;48.090;11.464;2023-04-03T19:42:39;3.97;;;1.50;;
27778;SDS011;30234;48.090;11.464;2023-04-03T19:46:41;3.55;;;1.80;;
27778;SDS011;30234;48.090;11.464;2023-04-03T19:50:42;3.78;;;1.98;;
27778;SDS011;30234;48.090;11.464;2023-04-03T19:54:43;2.40;;;1.80;;
27778;SDS011;30234;48.090;11.464;2023-04-03T19:58:47;3.75;;;2.15;;
27778;SDS011;30234;48.090;11.464;2023-04-03T20:02:52;3.63;;;1.40;;
27778;SDS011;30234;48.090;11.464;2023-04-03T20:06:54;2.42;;;1.83;;
27778;SDS011;30234;48.090;11.464;2023-04-03T20:10:55;4.97;;;2.35;;
27778;SDS011;30234;48.090;11.464;2023-04-03T20:14:56;3.20;;;1.90;;
27778;SDS011;30234;48.090;11.464;2023-04-03T20:19:00;3.28;;;2.17;;
27778;SDS011;30234;48.090;11.464;2023-04-03T20:23:01;4.15;;;2.00;;
27778;SDS011;30234;48.090;11.464;2023-04-03T20:27:02;3.97;;;2.58;;
27778;SDS011;30234;48.090;11.464;2023-04-03T20:31:04;2.58;;;2.00;;
27778;SDS011;30234;48.090;11.464;2023-04-03T20:35:06;6.00;;;2.67;;
27778;SDS011;30234;48.090;11.464;2023-04-03T20:39:07;4.97;;;3.00;;
27778;SDS011;30234;48.090;11.464;2023-04-03T20:43:08;3.92;;;2.17;;
27778;SDS011;30234;48.090;11.464;2023-04-03T20:47:09;5.40;;;2.50;;
27778;SDS011;30234;48.090;11.464;2023-04-03T20:51:16;5.95;;;2.40;;
27778;SDS011;30234;48.090;11.464;2023-04-03T20:55:19;4.97;;;2.83;;
27778;SDS011;30234;48.090;11.464;2023-04-03T20:59:20;5.60;;;2.42;;
27778;SDS011;30234;48.090;11.464;2023-04-03T21:03:22;6.13;;;2.42;;
27778;SDS011;30234;48.090;11.464;2023-04-03T21:21:24;3.80;;;2.10;;
27778;SDS011;30234;48.090;11.464;2023-04-03T21:25:26;4.13;;;2.55;;
27778;SDS011;30234;48.090;11.464;2023-04-03T21:29:27;4.30;;;2.50;;
27778;SDS011;30234;48.090;11.464;2023-04-03T21:33:28;4.07;;;2.00;;
27778;SDS011;30234;48.090;11.464;2023-04-03T21:37:29;4.13;;;2.33;;
27778;SDS011;30234;48.090;11.464;2023-04-03T21:41:33;2.45;;;1.83;;
27778;SDS011;30234;48.090;11.464;2023-04-03T21:45:34;3.47;;;2.20;;
27778;SDS011;30234;48.090;11.464;2023-04-03T21:49:37;4.90;;;2.03;;
27778;SDS011;30234;48.090;11.464;2023-04-03T21:53:38;3.25;;;2.05;;
27778;SDS011;30234;48.090;11.464;2023-04-03T21:57:40;6.53;;;2.25;;
27778;SDS011;30234;48.090;11.464;2023-04-03T22:01:41;3.38;;;2.13;;
27778;SDS011;30234;48.090;11.464;2023-04-03T22:05:42;4.47;;;2.17;;
27778;SDS011;30234;48.090;11.464;2023-04-03T22:09:43;4.43;;;2.25;;
27778;SDS011;30234;48.090;11.464;2023-04-03T22:13:44;2.47;;;2.03;;
27778;SDS011;30234;48.090;11.464;2023-04-03T22:17:45;4.55;;;2.50;;
27778;SDS011;30234;48.090;11.464;2023-04-03T22:21:46;4.43;;;2.38;;
27778;SDS011;30234;48.090;11.464;2023-04-03T22:26:06;5.00;;;2.13;;
27778;SDS011;30234;48.090;11.464;2023-04-03T22:30:09;6.13;;;2.05;;
27778;SDS011;30234;48.090;11.464;2023-04-03T22:34:11;2.97;;;2.03;;
27778;SDS011;30234;48.090;11.464;2023-04-03T22:38:12;7.72;;;2.13;;
27778;SDS011;30234;48.090;11.464;2023-04-03T22:42:15;4.35;;;2.25;;
27778;SDS011;30234;48.090;11.464;2023-04-03T22:46:16;3.97;;;2.22;;
27778;SDS011;30234;48.090;11.464;2023-04-03T22:50:17;4.78;;;2.10;;
27778;SDS011;30234;48.090;11.464;2023-04-03T22:54:18;3.85;;;2.08;;
27778;SDS011;30234;48.090;11.464;2023-04-03T22:58:19;4.68;;;2.58;;
27778;SDS011;30234;48.090;11.464;2023-04-03T23:02:24;3.38;;;2.17;;
27778;SDS011;30234;48.090;11.464;2023-04-03T23:06:25;5.22;;;2.28;;
27778;SDS011;30234;48.090;11.464;2023-04-03T23:10:27;3.00;;;2.22;;
27778;SDS011;30234;48.090;11.464;2023-04-03T23:14:28;5.53;;;2.90;;
27778;SDS011;30234;48.090;11.464;2023-04-03T23:18:29;8.38;;;2.25;;
27778;SDS011;30234;48.090;11.464;2023-04-03T23:22:32;2.00;;;1.55;;
27778;SDS011;30234;48.090;11.464;2023-04-03T23:26:33;3.13;;;1.90;;
27778;SDS011;30234;48.090;11.464;2023-04-03T23:30:34;3.85;;;1.90;;
27778;SDS011;30234;48.090;11.464;2023-04-03T23:34:35;3.17;;;1.95;;
27778;SDS011;30234;48.090;11.464;2023-04-03T23:38:36;3.35;;;2.17;;
27778;SDS011;30234;48.090;11.464;2023-04-03T23:42:37;3.08;;;1.80;;
27778;SDS011;30234;48.090;11.464;2023-04-03T23:46:39;3.97;;;1.67;;
27778;SDS011;30234;48.090;11.464;2023-04-03T23:50:40;3.42;;;1.50;;
27778;SDS011;30234;48.090;11.464;2023-04-03T23:54:44;2.25;;;1.73;;
27778;SDS011;30234;48.090;11.464;2023-04-03T23:58:44;3.58;;;1.70;;
